createdAt,value
2022-09-26T00:01:50.781Z,72.42
2022-09-26T00:04:29.079Z,72.88
2022-09-26T00:07:02.356Z,73.16
2022-09-26T00:09:36.352Z,73.21
2022-09-26T00:12:08.038Z,73.39
2022-09-26T00:14:39.341Z,73.56
2022-09-26T00:17:09.188Z,73.44
2022-09-26T00:19:42.555Z,73.64
2022-09-26T00:22:13.115Z,73.80
2022-09-26T00:24:42.937Z,72.90
2022-09-26T00:27:12.452Z,72.83
2022-09-26T00:29:41.371Z,73.19
2022-09-26T00:32:12.182Z,74.70
2022-09-26T00:34:42.931Z,74.15
2022-09-26T00:37:14.533Z,75.25
2022-09-26T00:39:43.871Z,75.01
2022-09-26T00:42:16.308Z,74.49
2022-09-26T00:44:57.680Z,73.36
2022-09-26T00:47:37.562Z,74.49
2022-09-26T00:50:16.074Z,74.10
2022-09-26T00:52:55.743Z,73.80
2022-09-26T00:55:31.162Z,74.32
2022-09-26T00:58:11.830Z,74.41
2022-09-26T01:00:43.918Z,75.12
2022-09-26T01:03:16.959Z,74.38
2022-09-26T01:05:47.668Z,74.66
2022-09-26T01:08:19.100Z,74.48
2022-09-26T01:10:51.090Z,73.22
2022-09-26T01:13:26.979Z,73.39
2022-09-26T01:15:56.571Z,73.18
2022-09-26T01:18:28.884Z,72.79
2022-09-26T01:21:24.329Z,73.48
2022-09-26T01:24:32.054Z,74.20
2022-09-26T01:27:21.519Z,74.35
2022-09-26T01:30:17.421Z,74.28
2022-09-26T01:33:10.601Z,74.39
2022-09-26T01:36:10.609Z,73.84
2022-09-26T01:38:51.773Z,74.98
2022-09-26T01:41:42.108Z,75.51
2022-09-26T01:44:20.315Z,74.94
2022-09-26T01:46:52.457Z,75.22
2022-09-26T01:49:35.679Z,75.19
2022-09-26T01:52:12.694Z,74.81
2022-09-26T01:55:19.352Z,75.40
2022-09-26T01:58:00.856Z,76.06
2022-09-26T02:00:32.502Z,75.29
2022-09-26T02:03:06.542Z,75.53
2022-09-26T02:06:05.212Z,74.92
2022-09-26T02:08:53.922Z,74.05
2022-09-26T02:11:27.385Z,75.01
2022-09-26T02:14:07.148Z,74.43
2022-09-26T02:16:47.577Z,75.26
2022-09-26T02:19:24.798Z,74.89
2022-09-26T02:21:55.500Z,75.61
2022-09-26T02:24:24.804Z,75.07
2022-09-26T02:26:54.547Z,74.77
2022-09-26T02:29:24.127Z,74.66
2022-09-26T02:32:16.143Z,74.21
2022-09-26T02:34:47.611Z,73.64
2022-09-26T02:37:16.952Z,73.92
2022-09-26T02:39:46.612Z,74.33
2022-09-26T02:42:38.803Z,76.10
2022-09-26T02:45:33.258Z,76.42
2022-09-26T02:48:24.996Z,75.88
2022-09-26T02:51:10.217Z,75.58
2022-09-26T02:54:01.904Z,75.09
2022-09-26T02:56:52.041Z,75.51
2022-09-26T02:59:47.420Z,75.51
2022-09-26T03:02:37.928Z,74.45
2022-09-26T03:05:13.392Z,74.26
2022-09-26T03:07:52.117Z,73.79
2022-09-26T03:10:20.013Z,73.20
2022-09-26T03:12:49.736Z,73.21
2022-09-26T03:15:20.179Z,74.32
2022-09-26T03:17:52.690Z,74.64
2022-09-26T03:20:23.321Z,74.72
2022-09-26T03:22:52.296Z,75.06
2022-09-26T03:25:23.928Z,74.32
2022-09-26T03:27:54.830Z,73.95
2022-09-26T03:30:24.242Z,73.88
2022-09-26T03:32:54.627Z,73.84
2022-09-26T03:35:23.640Z,73.50
2022-09-26T03:37:52.874Z,73.80
2022-09-26T03:40:22.805Z,73.06
2022-09-26T03:42:51.362Z,72.97
2022-09-26T03:45:21.317Z,72.46
2022-09-26T03:47:57.482Z,71.97
2022-09-26T03:50:27.838Z,72.15
2022-09-26T03:52:56.546Z,72.01
2022-09-26T03:55:24.758Z,71.92
2022-09-26T03:57:53.099Z,72.71
2022-09-26T04:00:22.816Z,72.83
2022-09-26T04:02:51.906Z,73.34
2022-09-26T04:05:20.461Z,73.42
2022-09-26T04:07:48.542Z,73.56
2022-09-26T04:10:17.215Z,74.14
2022-09-26T04:12:46.276Z,73.98
2022-09-26T04:15:16.206Z,73.87
2022-09-26T04:17:44.846Z,74.40
2022-09-26T04:20:14.061Z,74.56
2022-09-26T04:22:42.849Z,73.96
2022-09-26T04:25:12.160Z,73.05
2022-09-26T04:27:39.907Z,72.78
2022-09-26T04:30:11.923Z,73.43
2022-09-26T04:32:42.093Z,72.80
2022-09-26T04:35:14.486Z,71.94
2022-09-26T04:37:43.326Z,71.20
2022-09-26T04:40:11.590Z,70.92
2022-09-26T04:42:42.744Z,71.49
2022-09-26T04:45:11.972Z,70.95
2022-09-26T04:47:39.896Z,71.67
2022-09-26T04:50:12.901Z,71.38
2022-09-26T04:52:42.767Z,72.28
2022-09-26T04:55:12.398Z,71.75
2022-09-26T04:57:40.679Z,72.31
2022-09-26T05:00:13.207Z,71.28
2022-09-26T05:02:42.298Z,72.03
2022-09-26T05:05:11.449Z,72.42
2022-09-26T05:07:41.282Z,72.17
2022-09-26T05:10:10.978Z,71.94
2022-09-26T05:12:39.878Z,73.49
2022-09-26T05:15:09.585Z,72.24
2022-09-26T05:17:37.898Z,71.12
2022-09-26T05:20:11.241Z,71.92
2022-09-26T05:22:39.459Z,72.78
2022-09-26T05:25:26.480Z,71.80
2022-09-26T05:27:54.963Z,73.37
2022-09-26T05:30:25.979Z,73.21
2022-09-26T05:32:54.567Z,73.85
2022-09-26T05:35:23.990Z,73.57
2022-09-26T05:38:00.442Z,72.27
2022-09-26T05:40:50.655Z,72.13
2022-09-26T05:43:19.467Z,72.94
2022-09-26T05:45:50.663Z,73.15
2022-09-26T05:48:20.916Z,73.20
2022-09-26T05:50:51.592Z,73.17
2022-09-26T05:53:19.844Z,71.79
2022-09-26T05:55:50.808Z,73.11
2022-09-26T05:58:21.926Z,72.48
2022-09-26T06:00:53.591Z,71.47
2022-09-26T06:03:23.132Z,71.44
2022-09-26T06:05:52.245Z,72.22
2022-09-26T06:08:21.127Z,72.16
2022-09-26T06:10:49.508Z,71.76
2022-09-26T06:13:17.445Z,71.72
2022-09-26T06:15:49.221Z,72.67
2022-09-26T06:18:18.385Z,72.11
2022-09-26T06:20:46.633Z,71.77
2022-09-26T06:23:15.215Z,72.81
2022-09-26T06:25:44.565Z,72.56
2022-09-26T06:28:14.122Z,72.28
2022-09-26T06:30:42.564Z,72.67
2022-09-26T06:33:11.933Z,73.00
2022-09-26T06:35:43.849Z,72.07
2022-09-26T06:38:12.806Z,71.75
2022-09-26T06:40:40.797Z,71.14
2022-09-26T06:43:09.317Z,71.47
2022-09-26T06:45:46.026Z,71.71
2022-09-26T06:48:21.025Z,71.04
2022-09-26T06:51:00.235Z,71.30
2022-09-26T06:53:28.942Z,71.28
2022-09-26T06:56:01.786Z,71.10
2022-09-26T06:58:32.541Z,71.06
2022-09-26T07:01:02.318Z,71.70
2022-09-26T07:03:32.453Z,71.92
2022-09-26T07:06:00.866Z,71.67
2022-09-26T07:08:57.464Z,71.30
2022-09-26T07:14:36.827Z,70.88
2022-09-26T07:16:57.790Z,70.56
2022-09-26T07:19:25.958Z,70.62
2022-09-26T07:21:55.100Z,70.83
2022-09-26T07:24:23.519Z,70.92
2022-09-26T07:27:23.144Z,71.19
2022-09-26T07:30:11.502Z,71.42
2022-09-26T07:33:24.451Z,71.43
2022-09-26T07:36:13.599Z,71.66
2022-09-26T07:39:04.341Z,72.48
2022-09-26T07:41:50.121Z,72.61
2022-09-26T07:47:49.198Z,72.80
2022-09-26T07:50:48.451Z,72.34
2022-09-26T09:52:20.292Z,62.54
2022-09-26T09:55:05.571Z,59.98
2022-09-26T09:58:18.085Z,60.31
2022-09-26T10:01:14.479Z,59.28
2022-09-26T10:04:44.237Z,58.11
2022-09-26T10:07:47.704Z,57.18
2022-09-26T10:11:09.293Z,57.55
2022-09-26T10:14:02.217Z,57.03
2022-09-26T10:17:18.273Z,54.92
2022-09-26T10:20:43.531Z,54.25
2022-09-26T10:23:59.237Z,54.25
2022-09-26T10:26:44.900Z,54.94
2022-09-26T10:29:34.665Z,55.03
2022-09-26T10:32:27.973Z,54.21
2022-09-26T10:35:25.459Z,53.09
2022-09-26T11:38:39.150Z,49.60
2022-09-26T11:44:27.257Z,48.81
2022-09-26T11:47:50.222Z,48.36
2022-09-26T11:50:59.265Z,48.35
2022-09-26T12:26:53.622Z,45.80
2022-09-26T12:29:55.607Z,45.25
2022-09-26T12:33:18.827Z,45.42
2022-09-26T12:36:04.277Z,45.96
2022-09-26T12:38:56.474Z,45.10
2022-09-26T12:41:40.512Z,44.19
2022-09-26T12:44:22.854Z,44.35
2022-09-26T12:47:02.794Z,43.63
2022-09-26T12:49:33.644Z,43.62
2022-09-26T12:52:30.461Z,43.84
2022-09-26T12:55:25.584Z,43.72
2022-09-26T12:58:15.128Z,44.08
2022-09-26T13:01:03.258Z,44.04
2022-09-26T13:04:05.149Z,43.49
2022-09-26T13:07:08.047Z,43.65
2022-09-26T13:10:00.324Z,43.56
2022-09-26T13:12:46.327Z,42.76
2022-09-26T13:15:31.528Z,43.51
2022-09-26T13:18:04.517Z,42.39
2022-09-26T13:20:40.924Z,43.27
2022-09-26T13:23:30.508Z,43.25
2022-09-26T13:26:15.635Z,43.31
2022-09-26T13:29:17.149Z,43.76
2022-09-26T13:32:15.981Z,43.44
2022-09-26T13:34:55.642Z,43.36
2022-09-26T13:37:36.603Z,43.46
2022-09-26T13:40:25.469Z,43.48
2022-09-26T13:43:07.610Z,43.71
2022-09-26T13:46:02.647Z,44.09
2022-09-26T13:48:40.865Z,43.96
2022-09-26T13:51:18.664Z,43.06
2022-09-26T13:54:11.786Z,44.47
2022-09-26T13:56:47.607Z,44.15
2022-09-26T13:59:18.240Z,44.34
2022-09-26T14:02:25.685Z,44.29
2022-09-26T14:05:20.394Z,44.59
2022-09-26T14:08:46.901Z,45.55
2022-09-26T14:11:20.163Z,44.15
2022-09-26T14:13:49.454Z,44.10
2022-09-26T14:16:27.849Z,44.40
2022-09-26T14:19:16.393Z,44.94
2022-09-26T14:22:25.887Z,44.50
2022-09-26T14:25:00.179Z,45.57
2022-09-26T14:27:38.031Z,45.04
2022-09-26T14:30:25.548Z,45.25
2022-09-26T14:33:11.299Z,45.06
2022-09-26T14:35:39.787Z,44.30
2022-09-26T14:38:20.846Z,44.25
2022-09-26T14:40:58.206Z,44.55
2022-09-26T14:43:37.304Z,45.05
2022-09-26T14:46:23.765Z,44.96
2022-09-26T14:49:05.494Z,45.24
2022-09-26T14:51:56.773Z,45.81
2022-09-26T14:54:39.804Z,46.60
2022-09-26T14:57:21.995Z,46.44
2022-09-26T15:00:36.654Z,46.56
2022-09-26T15:03:24.475Z,46.10
2022-09-26T15:06:04.658Z,46.44
2022-09-26T15:08:39.456Z,45.51
2022-09-26T15:11:08.238Z,45.83
2022-09-26T15:13:43.441Z,46.22
2022-09-26T15:16:29.532Z,46.04
2022-09-26T15:19:01.361Z,46.41
2022-09-26T15:21:37.622Z,46.51
2022-09-26T15:24:26.529Z,47.00
2022-09-26T15:26:58.608Z,46.26
2022-09-26T15:29:27.665Z,46.31
2022-09-26T15:31:57.776Z,46.89
2022-09-26T15:34:33.686Z,46.36
2022-09-26T15:37:11.642Z,46.14
2022-09-26T15:39:42.228Z,45.78
2022-09-26T15:42:39.433Z,46.43
2022-09-26T15:45:23.320Z,45.71
2022-09-26T15:48:13.267Z,46.54
2022-09-26T15:50:45.180Z,46.00
2022-09-26T15:53:20.343Z,44.23
2022-09-26T15:56:01.912Z,44.23
2022-09-26T15:58:35.048Z,44.09
2022-09-26T16:01:03.134Z,45.19
2022-09-26T16:03:44.901Z,45.08
2022-09-26T16:06:24.836Z,45.98
2022-09-26T16:09:25.715Z,46.41
2022-09-26T16:12:00.576Z,46.58
2022-09-26T16:14:41.754Z,47.05
2022-09-26T16:17:19.115Z,47.34
2022-09-26T16:19:53.927Z,48.07
2022-09-26T16:22:21.969Z,48.21
2022-09-26T16:24:51.705Z,48.87
2022-09-26T16:27:25.619Z,48.43
2022-09-26T16:30:02.617Z,49.27
2022-09-26T16:32:32.991Z,50.51
2022-09-26T16:35:17.503Z,51.60
2022-09-26T16:37:57.658Z,51.62
2022-09-26T16:40:28.148Z,53.70
2022-09-26T16:43:14.384Z,53.79
2022-09-26T16:45:50.398Z,54.45
2022-09-26T16:48:50.311Z,55.64
2022-09-26T16:51:30.132Z,57.10
2022-09-26T16:54:07.805Z,58.42
2022-09-26T16:56:41.509Z,58.71
2022-09-26T16:59:36.779Z,58.42
2022-09-26T17:02:09.288Z,61.29
2022-09-26T17:04:37.500Z,61.22
2022-09-26T17:07:14.949Z,62.19
2022-09-26T17:09:44.168Z,61.38
2022-09-26T17:12:18.863Z,62.26
2022-09-26T17:14:52.119Z,61.15
2022-09-26T17:17:23.064Z,60.66
2022-09-26T17:19:58.214Z,59.13
2022-09-26T17:22:28.411Z,59.64
2022-09-26T17:24:56.617Z,58.88
2022-09-26T17:27:27.314Z,58.88
2022-09-26T17:30:00.237Z,58.90
2022-09-26T17:32:33.072Z,59.88
2022-09-26T17:35:05.128Z,60.57
2022-09-26T17:37:33.600Z,61.04
2022-09-26T17:40:06.906Z,61.28
2022-09-26T17:42:34.886Z,60.93
2022-09-26T17:45:03.725Z,63.18
2022-09-26T17:47:32.789Z,63.56
2022-09-26T17:50:00.851Z,63.07
2022-09-26T17:52:32.277Z,64.36
2022-09-26T17:55:02.396Z,63.84
2022-09-26T17:57:38.199Z,62.66
2022-09-26T18:00:13.217Z,62.17
2022-09-26T18:02:48.618Z,61.02
2022-09-26T18:05:22.817Z,61.14
2022-09-26T18:07:54.019Z,61.35
2022-09-26T18:10:25.118Z,60.66
2022-09-26T18:12:58.757Z,60.58
2022-09-26T18:15:27.978Z,62.47
2022-09-26T18:17:58.125Z,62.80
2022-09-26T18:20:37.799Z,63.32
2022-09-26T18:23:08.614Z,62.75
2022-09-26T18:25:38.065Z,62.40
2022-09-26T18:28:12.947Z,62.16
2022-09-26T18:30:43.223Z,61.49
2022-09-26T18:33:12.966Z,61.01
2022-09-26T18:35:44.520Z,61.76
2022-09-26T18:38:13.890Z,61.67
2022-09-26T18:40:47.691Z,60.55
2022-09-26T18:43:20.046Z,61.62
2022-09-26T18:45:49.650Z,62.86
2022-09-26T18:48:32.897Z,65.83
2022-09-26T18:51:03.761Z,65.54
2022-09-26T18:53:37.704Z,65.85
2022-09-26T18:56:37.034Z,65.22
2022-09-26T18:59:10.653Z,65.43
2022-09-26T19:01:42.974Z,63.51
2022-09-26T19:04:17.482Z,63.79
2022-09-26T19:06:48.570Z,63.14
2022-09-26T19:09:20.177Z,62.65
2022-09-26T19:11:48.797Z,61.87
2022-09-26T19:14:18.668Z,62.38
2022-09-26T19:16:48.800Z,62.23
2022-09-26T19:19:18.231Z,62.80
2022-09-26T19:21:48.064Z,62.67
2022-09-26T19:24:31.708Z,63.79
2022-09-26T19:27:06.656Z,63.95
2022-09-26T19:29:41.167Z,63.03
2022-09-26T19:32:19.644Z,61.82
2022-09-26T19:34:54.698Z,63.11
2022-09-26T19:37:24.565Z,64.47
2022-09-26T19:39:52.903Z,64.41
2022-09-26T19:42:21.235Z,64.57
2022-09-26T19:44:51.665Z,64.34
2022-09-26T19:47:22.322Z,64.42
2022-09-26T19:49:51.762Z,64.23
2022-09-26T19:52:22.331Z,64.54
2022-09-26T19:54:50.838Z,65.34
2022-09-26T19:57:20.034Z,65.16
2022-09-26T19:59:49.006Z,65.72
2022-09-26T20:02:24.576Z,65.08
2022-09-26T20:04:53.391Z,64.88
2022-09-26T20:07:21.406Z,64.78
2022-09-26T20:09:49.757Z,63.26
2022-09-26T20:12:18.269Z,63.22
2022-09-26T20:14:46.440Z,65.15
2022-09-26T20:17:25.483Z,63.77
2022-09-26T20:19:59.069Z,64.21
2022-09-26T20:22:29.983Z,63.41
2022-09-26T20:25:02.412Z,64.43
2022-09-26T20:27:32.741Z,63.07
2022-09-26T20:30:21.282Z,62.54
2022-09-26T20:32:49.681Z,63.39
2022-09-26T20:35:18.755Z,63.11
2022-09-26T20:37:47.315Z,63.09
2022-09-26T20:40:22.791Z,63.26
2022-09-26T20:42:57.784Z,62.58
2022-09-26T20:45:30.137Z,62.69
2022-09-26T20:47:59.414Z,63.44
2022-09-26T20:50:34.130Z,64.06
2022-09-26T20:53:10.749Z,63.81
2022-09-26T20:55:43.846Z,63.74
2022-09-26T20:58:14.924Z,65.42
2022-09-26T21:00:43.801Z,64.11
2022-09-26T21:03:13.705Z,65.24
2022-09-26T21:05:43.676Z,64.50
2022-09-26T21:08:28.740Z,64.71
2022-09-26T21:10:58.633Z,64.70
2022-09-26T21:13:27.712Z,64.51
2022-09-26T21:15:57.699Z,63.51
2022-09-26T21:18:27.693Z,64.79
2022-09-26T21:21:05.703Z,65.34
2022-09-26T21:23:42.121Z,65.75
2022-09-26T21:26:31.467Z,67.90
2022-09-26T21:28:59.682Z,68.51
2022-09-26T21:31:30.562Z,68.03
2022-09-26T21:34:00.468Z,67.08
2022-09-26T21:36:35.023Z,66.70
2022-09-26T21:39:03.786Z,66.10
2022-09-26T21:41:33.582Z,66.17
2022-09-26T21:44:04.987Z,65.96
2022-09-26T21:46:34.257Z,65.45
2022-09-26T21:49:02.503Z,65.29
2022-09-26T21:51:31.228Z,64.62
2022-09-26T21:54:08.669Z,64.67
2022-09-26T21:56:49.378Z,64.93
2022-09-26T21:59:19.925Z,65.19
2022-09-26T22:01:47.786Z,64.95
2022-09-26T22:04:18.994Z,64.44
2022-09-26T22:06:48.350Z,64.14
2022-09-26T22:09:17.429Z,65.72
2022-09-26T22:11:46.025Z,65.73
2022-09-26T22:14:18.740Z,64.98
2022-09-26T22:16:48.278Z,65.99
2022-09-26T22:19:18.890Z,65.61
2022-09-26T22:21:51.843Z,66.23
2022-09-26T22:24:23.495Z,65.40
2022-09-26T22:26:57.500Z,66.94
2022-09-26T22:29:28.245Z,65.85
2022-09-26T22:31:59.734Z,65.57
2022-09-26T22:34:31.345Z,65.97
2022-09-26T22:37:01.956Z,67.24
2022-09-26T22:39:32.449Z,67.70
2022-09-26T22:42:04.412Z,66.48
2022-09-26T22:44:37.847Z,66.72
2022-09-26T22:47:09.898Z,66.62
2022-09-26T22:49:40.276Z,65.65
2022-09-26T22:52:11.866Z,65.90
2022-09-26T22:54:42.106Z,65.54
2022-09-26T22:57:14.077Z,65.27
2022-09-26T22:59:44.068Z,65.61
2022-09-26T23:02:16.063Z,65.73
2022-09-26T23:04:48.951Z,66.50
2022-09-26T23:07:19.790Z,66.11
2022-09-26T23:09:50.105Z,66.34
2022-09-26T23:12:22.321Z,66.44
2022-09-26T23:14:53.494Z,65.45
2022-09-26T23:17:36.824Z,65.53
2022-09-26T23:20:07.903Z,66.74
2022-09-26T23:22:41.734Z,66.42
2022-09-26T23:25:13.887Z,66.67
2022-09-26T23:27:45.210Z,66.35
2022-09-26T23:30:15.635Z,65.41
2022-09-26T23:32:48.590Z,65.61
2022-09-26T23:35:19.294Z,66.27
2022-09-26T23:37:51.793Z,65.82
2022-09-26T23:40:22.352Z,66.04
2022-09-26T23:42:53.343Z,65.42
2022-09-26T23:45:23.366Z,65.97
2022-09-26T23:47:55.278Z,66.79
2022-09-26T23:50:24.138Z,65.72
2022-09-26T23:52:55.562Z,65.12
2022-09-26T23:55:25.125Z,66.30
2022-09-26T23:58:00.417Z,65.87
